sensor_id;sensor_type;location;lat;lon;timestamp;P1;durP1;ratioP1;P2;durP2;ratioP2
40471;SDS011;26174;42.908;23.800;2022-12-29T00:01:02;12.77;;;6.18;;
40471;SDS011;26174;42.908;23.800;2022-12-29T00:03:27;14.80;;;7.28;;
40471;SDS011;26174;42.908;23.800;2022-12-29T00:05:56;19.20;;;8.30;;
40471;SDS011;26174;42.908;23.800;2022-12-29T00:08:22;13.30;;;7.22;;
40471;SDS011;26174;42.908;23.800;2022-12-29T00:11:05;14.27;;;8.20;;
40471;SDS011;26174;42.908;23.800;2022-12-29T00:13:31;17.33;;;8.70;;
40471;SDS011;26174;42.908;23.800;2022-12-29T00:16:15;16.70;;;7.03;;
40471;SDS011;26174;42.908;23.800;2022-12-29T00:18:41;14.38;;;7.22;;
40471;SDS011;26174;42.908;23.800;2022-12-29T00:21:15;16.10;;;7.57;;
40471;SDS011;26174;42.908;23.800;2022-12-29T00:24:00;39.75;;;16.90;;
40471;SDS011;26174;42.908;23.800;2022-12-29T00:26:45;24.55;;;11.65;;
40471;SDS011;26174;42.908;23.800;2022-12-29T00:29:31;23.25;;;12.40;;
40471;SDS011;26174;42.908;23.800;2022-12-29T00:32:15;19.42;;;10.38;;
40471;SDS011;26174;42.908;23.800;2022-12-29T00:34:58;24.20;;;11.32;;
40471;SDS011;26174;42.908;23.800;2022-12-29T00:37:33;18.10;;;9.18;;
40471;SDS011;26174;42.908;23.800;2022-12-29T00:40:21;26.00;;;10.60;;
40471;SDS011;26174;42.908;23.800;2022-12-29T00:43:05;29.35;;;13.70;;
40471;SDS011;26174;42.908;23.800;2022-12-29T00:45:49;16.65;;;8.60;;
40471;SDS011;26174;42.908;23.800;2022-12-29T00:48:14;17.90;;;9.20;;
40471;SDS011;26174;42.908;23.800;2022-12-29T00:50:40;22.65;;;10.20;;
40471;SDS011;26174;42.908;23.800;2022-12-29T00:53:05;20.52;;;10.32;;
40471;SDS011;26174;42.908;23.800;2022-12-29T00:55:35;25.70;;;9.93;;
40471;SDS011;26174;42.908;23.800;2022-12-29T00:58:01;23.05;;;10.38;;
40471;SDS011;26174;42.908;23.800;2022-12-29T01:00:27;21.20;;;11.05;;
40471;SDS011;26174;42.908;23.800;2022-12-29T01:02:52;24.85;;;11.18;;
40471;SDS011;26174;42.908;23.800;2022-12-29T01:05:18;24.02;;;11.05;;
40471;SDS011;26174;42.908;23.800;2022-12-29T01:07:43;18.35;;;9.70;;
40471;SDS011;26174;42.908;23.800;2022-12-29T01:10:09;20.20;;;10.30;;
40471;SDS011;26174;42.908;23.800;2022-12-29T01:12:34;25.42;;;10.25;;
40471;SDS011;26174;42.908;23.800;2022-12-29T01:15:10;16.90;;;8.63;;
40471;SDS011;26174;42.908;23.800;2022-12-29T01:17:36;19.15;;;8.55;;
40471;SDS011;26174;42.908;23.800;2022-12-29T01:20:02;12.18;;;5.88;;
40471;SDS011;26174;42.908;23.800;2022-12-29T01:22:28;14.43;;;7.18;;
40471;SDS011;26174;42.908;23.800;2022-12-29T01:24:54;17.20;;;8.15;;
40471;SDS011;26174;42.908;23.800;2022-12-29T01:27:19;14.88;;;8.15;;
40471;SDS011;26174;42.908;23.800;2022-12-29T01:29:45;18.48;;;8.85;;
40471;SDS011;26174;42.908;23.800;2022-12-29T01:32:10;19.60;;;9.68;;
40471;SDS011;26174;42.908;23.800;2022-12-29T01:34:36;20.88;;;10.23;;
40471;SDS011;26174;42.908;23.800;2022-12-29T01:37:01;19.88;;;9.63;;
40471;SDS011;26174;42.908;23.800;2022-12-29T01:39:27;23.35;;;10.45;;
40471;SDS011;26174;42.908;23.800;2022-12-29T01:41:52;19.95;;;8.90;;
40471;SDS011;26174;42.908;23.800;2022-12-29T01:47:12;24.23;;;10.20;;
40471;SDS011;26174;42.908;23.800;2022-12-29T01:49:39;24.83;;;9.60;;
40471;SDS011;26174;42.908;23.800;2022-12-29T01:52:05;22.95;;;10.05;;
40471;SDS011;26174;42.908;23.800;2022-12-29T01:57:04;22.80;;;10.65;;
40471;SDS011;26174;42.908;23.800;2022-12-29T01:59:38;31.55;;;13.73;;
40471;SDS011;26174;42.908;23.800;2022-12-29T02:02:06;28.48;;;12.80;;
40471;SDS011;26174;42.908;23.800;2022-12-29T02:04:32;21.75;;;9.80;;
40471;SDS011;26174;42.908;23.800;2022-12-29T02:07:03;15.13;;;7.40;;
40471;SDS011;26174;42.908;23.800;2022-12-29T02:09:30;12.23;;;6.38;;
40471;SDS011;26174;42.908;23.800;2022-12-29T02:11:56;14.63;;;7.43;;
40471;SDS011;26174;42.908;23.800;2022-12-29T02:14:23;12.82;;;6.72;;
40471;SDS011;26174;42.908;23.800;2022-12-29T02:25:32;9.13;;;4.82;;
40471;SDS011;26174;42.908;23.800;2022-12-29T02:30:45;15.75;;;8.10;;
40471;SDS011;26174;42.908;23.800;2022-12-29T02:39:20;11.57;;;6.18;;
40471;SDS011;26174;42.908;23.800;2022-12-29T02:44:36;20.43;;;8.37;;
40471;SDS011;26174;42.908;23.800;2022-12-29T02:49:42;17.88;;;7.75;;
40471;SDS011;26174;42.908;23.800;2022-12-29T02:52:15;16.98;;;8.50;;
40471;SDS011;26174;42.908;23.800;2022-12-29T02:54:42;12.13;;;6.03;;
40471;SDS011;26174;42.908;23.800;2022-12-29T02:57:26;17.73;;;7.65;;
40471;SDS011;26174;42.908;23.800;2022-12-29T03:00:05;15.07;;;7.72;;
40471;SDS011;26174;42.908;23.800;2022-12-29T03:16:11;26.10;;;10.48;;
40471;SDS011;26174;42.908;23.800;2022-12-29T03:24:19;21.35;;;9.32;;
40471;SDS011;26174;42.908;23.800;2022-12-29T03:26:47;22.92;;;9.88;;
40471;SDS011;26174;42.908;23.800;2022-12-29T03:29:14;29.10;;;10.73;;
40471;SDS011;26174;42.908;23.800;2022-12-29T03:31:40;26.33;;;10.25;;
40471;SDS011;26174;42.908;23.800;2022-12-29T03:34:07;19.63;;;10.05;;
40471;SDS011;26174;42.908;23.800;2022-12-29T03:36:36;24.90;;;10.73;;
40471;SDS011;26174;42.908;23.800;2022-12-29T03:39:11;30.65;;;11.98;;
40471;SDS011;26174;42.908;23.800;2022-12-29T03:41:37;23.85;;;10.68;;
40471;SDS011;26174;42.908;23.800;2022-12-29T03:44:08;26.00;;;10.80;;
40471;SDS011;26174;42.908;23.800;2022-12-29T03:46:34;28.77;;;12.48;;
40471;SDS011;26174;42.908;23.800;2022-12-29T03:48:59;31.80;;;13.98;;
40471;SDS011;26174;42.908;23.800;2022-12-29T03:51:25;45.55;;;13.13;;
40471;SDS011;26174;42.908;23.800;2022-12-29T03:53:50;23.85;;;11.38;;
40471;SDS011;26174;42.908;23.800;2022-12-29T03:56:16;26.33;;;11.77;;
40471;SDS011;26174;42.908;23.800;2022-12-29T03:58:41;37.97;;;13.00;;
40471;SDS011;26174;42.908;23.800;2022-12-29T04:01:07;24.58;;;12.60;;
40471;SDS011;26174;42.908;23.800;2022-12-29T04:03:33;37.63;;;14.32;;
40471;SDS011;26174;42.908;23.800;2022-12-29T04:05:58;24.30;;;11.52;;
40471;SDS011;26174;42.908;23.800;2022-12-29T04:08:24;29.90;;;12.32;;
40471;SDS011;26174;42.908;23.800;2022-12-29T04:10:49;36.70;;;13.30;;
40471;SDS011;26174;42.908;23.800;2022-12-29T04:13:15;139.35;;;32.33;;
40471;SDS011;26174;42.908;23.800;2022-12-29T04:15:42;33.75;;;12.18;;
40471;SDS011;26174;42.908;23.800;2022-12-29T04:18:08;30.42;;;11.02;;
40471;SDS011;26174;42.908;23.800;2022-12-29T04:20:34;43.10;;;13.95;;
40471;SDS011;26174;42.908;23.800;2022-12-29T04:23:18;29.30;;;11.45;;
40471;SDS011;26174;42.908;23.800;2022-12-29T04:25:44;23.45;;;10.57;;
40471;SDS011;26174;42.908;23.800;2022-12-29T04:28:11;27.63;;;10.65;;
40471;SDS011;26174;42.908;23.800;2022-12-29T04:30:37;23.45;;;10.02;;
40471;SDS011;26174;42.908;23.800;2022-12-29T04:33:02;21.45;;;10.40;;
40471;SDS011;26174;42.908;23.800;2022-12-29T04:35:28;20.38;;;10.60;;
40471;SDS011;26174;42.908;23.800;2022-12-29T04:37:53;31.63;;;10.85;;
40471;SDS011;26174;42.908;23.800;2022-12-29T04:40:19;24.63;;;11.10;;
40471;SDS011;26174;42.908;23.800;2022-12-29T04:42:44;30.65;;;10.85;;
40471;SDS011;26174;42.908;23.800;2022-12-29T04:45:10;27.15;;;11.88;;
40471;SDS011;26174;42.908;23.800;2022-12-29T04:47:35;36.22;;;14.13;;
40471;SDS011;26174;42.908;23.800;2022-12-29T04:50:01;103.10;;;32.05;;
40471;SDS011;26174;42.908;23.800;2022-12-29T04:52:27;194.85;;;67.03;;
40471;SDS011;26174;42.908;23.800;2022-12-29T04:54:52;137.60;;;48.55;;
40471;SDS011;26174;42.908;23.800;2022-12-29T04:57:18;75.75;;;29.80;;
40471;SDS011;26174;42.908;23.800;2022-12-29T04:59:43;64.88;;;27.58;;
40471;SDS011;26174;42.908;23.800;2022-12-29T05:02:09;80.55;;;32.72;;
40471;SDS011;26174;42.908;23.800;2022-12-29T05:04:34;68.90;;;28.05;;
40471;SDS011;26174;42.908;23.800;2022-12-29T05:07:00;57.15;;;22.90;;
40471;SDS011;26174;42.908;23.800;2022-12-29T05:09:25;65.30;;;24.63;;
40471;SDS011;26174;42.908;23.800;2022-12-29T05:11:51;51.72;;;20.88;;
40471;SDS011;26174;42.908;23.800;2022-12-29T05:14:16;58.60;;;23.45;;
40471;SDS011;26174;42.908;23.800;2022-12-29T05:16:42;58.17;;;22.42;;
40471;SDS011;26174;42.908;23.800;2022-12-29T05:19:07;52.80;;;22.35;;
40471;SDS011;26174;42.908;23.800;2022-12-29T05:21:33;52.38;;;24.20;;
40471;SDS011;26174;42.908;23.800;2022-12-29T05:23:58;48.60;;;21.65;;
40471;SDS011;26174;42.908;23.800;2022-12-29T05:26:24;51.22;;;19.63;;
40471;SDS011;26174;42.908;23.800;2022-12-29T05:28:50;47.50;;;17.17;;
40471;SDS011;26174;42.908;23.800;2022-12-29T05:31:18;32.70;;;15.13;;
40471;SDS011;26174;42.908;23.800;2022-12-29T05:33:43;28.50;;;13.10;;
40471;SDS011;26174;42.908;23.800;2022-12-29T05:36:09;32.67;;;14.15;;
40471;SDS011;26174;42.908;23.800;2022-12-29T05:38:35;41.25;;;15.38;;
40471;SDS011;26174;42.908;23.800;2022-12-29T05:41:00;69.47;;;24.30;;
40471;SDS011;26174;42.908;23.800;2022-12-29T05:43:26;61.58;;;23.27;;
40471;SDS011;26174;42.908;23.800;2022-12-29T05:45:55;85.55;;;30.83;;
40471;SDS011;26174;42.908;23.800;2022-12-29T05:48:21;100.75;;;35.92;;
40471;SDS011;26174;42.908;23.800;2022-12-29T05:50:47;93.90;;;34.30;;
40471;SDS011;26174;42.908;23.800;2022-12-29T05:53:13;71.22;;;27.98;;
40471;SDS011;26174;42.908;23.800;2022-12-29T05:55:39;70.90;;;29.05;;
40471;SDS011;26174;42.908;23.800;2022-12-29T05:58:04;105.65;;;41.78;;
40471;SDS011;26174;42.908;23.800;2022-12-29T06:00:30;87.72;;;37.28;;
40471;SDS011;26174;42.908;23.800;2022-12-29T06:02:55;73.63;;;30.63;;
40471;SDS011;26174;42.908;23.800;2022-12-29T06:05:21;74.70;;;28.63;;
40471;SDS011;26174;42.908;23.800;2022-12-29T06:07:47;86.93;;;33.05;;
40471;SDS011;26174;42.908;23.800;2022-12-29T06:13:39;89.10;;;32.90;;
40471;SDS011;26174;42.908;23.800;2022-12-29T06:16:05;85.00;;;34.00;;
40471;SDS011;26174;42.908;23.800;2022-12-29T06:18:31;92.78;;;36.58;;
40471;SDS011;26174;42.908;23.800;2022-12-29T06:21:03;66.20;;;28.83;;
40471;SDS011;26174;42.908;23.800;2022-12-29T06:23:29;73.53;;;27.40;;
40471;SDS011;26174;42.908;23.800;2022-12-29T06:25:58;100.70;;;37.95;;
40471;SDS011;26174;42.908;23.800;2022-12-29T06:28:23;115.35;;;46.70;;
40471;SDS011;26174;42.908;23.800;2022-12-29T06:30:49;123.32;;;49.50;;
40471;SDS011;26174;42.908;23.800;2022-12-29T06:33:15;148.85;;;58.42;;
40471;SDS011;26174;42.908;23.800;2022-12-29T06:35:41;188.15;;;76.95;;
40471;SDS011;26174;42.908;23.800;2022-12-29T06:38:07;207.80;;;86.68;;
40471;SDS011;26174;42.908;23.800;2022-12-29T06:40:33;209.23;;;84.80;;
40471;SDS011;26174;42.908;23.800;2022-12-29T06:42:58;200.63;;;82.85;;
40471;SDS011;26174;42.908;23.800;2022-12-29T06:45:24;164.60;;;64.50;;
40471;SDS011;26174;42.908;23.800;2022-12-29T06:47:50;165.35;;;63.72;;
40471;SDS011;26174;42.908;23.800;2022-12-29T06:50:15;226.05;;;91.53;;
40471;SDS011;26174;42.908;23.800;2022-12-29T06:52:41;185.07;;;74.25;;
40471;SDS011;26174;42.908;23.800;2022-12-29T06:55:06;263.55;;;118.20;;
40471;SDS011;26174;42.908;23.800;2022-12-29T06:57:32;181.60;;;71.25;;
40471;SDS011;26174;42.908;23.800;2022-12-29T06:59:58;157.80;;;65.63;;
40471;SDS011;26174;42.908;23.800;2022-12-29T07:02:24;170.07;;;71.90;;
40471;SDS011;26174;42.908;23.800;2022-12-29T07:04:51;146.07;;;60.38;;
40471;SDS011;26174;42.908;23.800;2022-12-29T07:07:18;146.93;;;62.15;;
40471;SDS011;26174;42.908;23.800;2022-12-29T07:09:44;137.93;;;59.20;;
40471;SDS011;26174;42.908;23.800;2022-12-29T07:12:13;137.63;;;62.08;;
40471;SDS011;26174;42.908;23.800;2022-12-29T07:14:56;153.70;;;71.97;;
40471;SDS011;26174;42.908;23.800;2022-12-29T07:17:21;128.80;;;55.25;;
40471;SDS011;26174;42.908;23.800;2022-12-29T07:19:50;146.25;;;59.03;;
40471;SDS011;26174;42.908;23.800;2022-12-29T07:22:15;153.65;;;72.93;;
40471;SDS011;26174;42.908;23.800;2022-12-29T07:24:41;145.30;;;66.15;;
40471;SDS011;26174;42.908;23.800;2022-12-29T07:27:08;182.25;;;79.40;;
40471;SDS011;26174;42.908;23.800;2022-12-29T07:29:33;170.25;;;67.78;;
40471;SDS011;26174;42.908;23.800;2022-12-29T07:31:59;149.25;;;63.92;;
40471;SDS011;26174;42.908;23.800;2022-12-29T07:34:25;159.07;;;70.07;;
40471;SDS011;26174;42.908;23.800;2022-12-29T07:36:53;156.93;;;70.78;;
40471;SDS011;26174;42.908;23.800;2022-12-29T07:39:19;160.20;;;70.43;;
40471;SDS011;26174;42.908;23.800;2022-12-29T07:41:48;192.88;;;87.15;;
40471;SDS011;26174;42.908;23.800;2022-12-29T07:44:22;176.05;;;76.88;;
40471;SDS011;26174;42.908;23.800;2022-12-29T07:46:48;169.02;;;74.65;;
40471;SDS011;26174;42.908;23.800;2022-12-29T07:49:13;181.77;;;80.45;;
40471;SDS011;26174;42.908;23.800;2022-12-29T07:51:39;195.57;;;84.03;;
40471;SDS011;26174;42.908;23.800;2022-12-29T07:54:23;146.52;;;65.50;;
40471;SDS011;26174;42.908;23.800;2022-12-29T07:56:55;194.18;;;87.55;;
40471;SDS011;26174;42.908;23.800;2022-12-29T07:59:20;175.43;;;80.47;;
40471;SDS011;26174;42.908;23.800;2022-12-29T08:01:46;168.25;;;75.53;;
40471;SDS011;26174;42.908;23.800;2022-12-29T08:04:12;170.95;;;78.95;;
40471;SDS011;26174;42.908;23.800;2022-12-29T08:06:41;172.30;;;85.80;;
40471;SDS011;26174;42.908;23.800;2022-12-29T08:09:07;191.95;;;92.38;;
40471;SDS011;26174;42.908;23.800;2022-12-29T08:11:33;158.45;;;81.80;;
40471;SDS011;26174;42.908;23.800;2022-12-29T08:13:58;154.25;;;77.82;;
40471;SDS011;26174;42.908;23.800;2022-12-29T08:16:24;95.43;;;46.00;;
40471;SDS011;26174;42.908;23.800;2022-12-29T08:18:49;94.40;;;46.00;;
40471;SDS011;26174;42.908;23.800;2022-12-29T08:21:15;85.63;;;43.95;;
40471;SDS011;26174;42.908;23.800;2022-12-29T08:23:41;151.73;;;74.30;;
40471;SDS011;26174;42.908;23.800;2022-12-29T08:26:06;56.97;;;29.13;;
40471;SDS011;26174;42.908;23.800;2022-12-29T08:28:32;62.15;;;31.33;;
40471;SDS011;26174;42.908;23.800;2022-12-29T08:30:59;59.00;;;25.10;;
40471;SDS011;26174;42.908;23.800;2022-12-29T08:33:26;43.90;;;24.48;;
40471;SDS011;26174;42.908;23.800;2022-12-29T08:35:52;39.83;;;20.38;;
40471;SDS011;26174;42.908;23.800;2022-12-29T08:38:17;45.88;;;21.10;;
40471;SDS011;26174;42.908;23.800;2022-12-29T08:40:43;35.15;;;18.17;;
40471;SDS011;26174;42.908;23.800;2022-12-29T08:43:09;30.30;;;17.30;;
40471;SDS011;26174;42.908;23.800;2022-12-29T08:45:34;32.28;;;19.35;;
40471;SDS011;26174;42.908;23.800;2022-12-29T08:48:00;31.95;;;16.00;;
40471;SDS011;26174;42.908;23.800;2022-12-29T08:50:27;31.73;;;18.02;;
40471;SDS011;26174;42.908;23.800;2022-12-29T08:52:53;43.42;;;24.35;;
40471;SDS011;26174;42.908;23.800;2022-12-29T08:55:18;55.38;;;27.10;;
40471;SDS011;26174;42.908;23.800;2022-12-29T08:57:44;42.88;;;24.00;;
40471;SDS011;26174;42.908;23.800;2022-12-29T09:00:09;47.78;;;24.17;;
40471;SDS011;26174;42.908;23.800;2022-12-29T09:02:35;45.90;;;25.33;;
40471;SDS011;26174;42.908;23.800;2022-12-29T09:05:01;47.28;;;26.58;;
40471;SDS011;26174;42.908;23.800;2022-12-29T09:07:27;57.63;;;29.38;;
40471;SDS011;26174;42.908;23.800;2022-12-29T09:09:52;70.53;;;32.28;;
40471;SDS011;26174;42.908;23.800;2022-12-29T09:12:18;69.75;;;34.03;;
40471;SDS011;26174;42.908;23.800;2022-12-29T09:14:45;54.85;;;29.45;;
40471;SDS011;26174;42.908;23.800;2022-12-29T09:17:11;61.45;;;28.67;;
40471;SDS011;26174;42.908;23.800;2022-12-29T09:19:55;62.30;;;28.92;;
40471;SDS011;26174;42.908;23.800;2022-12-29T09:22:20;58.30;;;31.27;;
40471;SDS011;26174;42.908;23.800;2022-12-29T09:24:46;47.53;;;27.98;;
40471;SDS011;26174;42.908;23.800;2022-12-29T09:27:12;57.28;;;30.30;;
40471;SDS011;26174;42.908;23.800;2022-12-29T09:29:37;74.22;;;36.25;;
40471;SDS011;26174;42.908;23.800;2022-12-29T09:32:03;76.32;;;40.00;;
40471;SDS011;26174;42.908;23.800;2022-12-29T09:34:29;80.03;;;40.42;;
40471;SDS011;26174;42.908;23.800;2022-12-29T09:36:54;71.95;;;37.05;;
40471;SDS011;26174;42.908;23.800;2022-12-29T09:39:21;63.28;;;35.15;;
40471;SDS011;26174;42.908;23.800;2022-12-29T09:47:13;58.30;;;32.60;;
40471;SDS011;26174;42.908;23.800;2022-12-29T09:49:41;56.08;;;31.95;;
40471;SDS011;26174;42.908;23.800;2022-12-29T09:52:15;100.70;;;55.22;;
40471;SDS011;26174;42.908;23.800;2022-12-29T10:00:11;47.55;;;28.45;;
40471;SDS011;26174;42.908;23.800;2022-12-29T10:08:29;51.15;;;30.30;;
40471;SDS011;26174;42.908;23.800;2022-12-29T10:11:05;52.20;;;33.60;;
40471;SDS011;26174;42.908;23.800;2022-12-29T10:16:46;49.60;;;29.42;;
40471;SDS011;26174;42.908;23.800;2022-12-29T10:19:32;52.75;;;26.88;;
40471;SDS011;26174;42.908;23.800;2022-12-29T10:22:12;40.80;;;23.98;;
40471;SDS011;26174;42.908;23.800;2022-12-29T10:25:02;42.67;;;22.52;;
40471;SDS011;26174;42.908;23.800;2022-12-29T10:27:36;44.42;;;21.52;;
40471;SDS011;26174;42.908;23.800;2022-12-29T10:30:02;40.05;;;22.27;;
40471;SDS011;26174;42.908;23.800;2022-12-29T10:35:25;49.53;;;23.92;;
40471;SDS011;26174;42.908;23.800;2022-12-29T10:38:05;50.63;;;24.38;;
40471;SDS011;26174;42.908;23.800;2022-12-29T10:40:57;40.78;;;24.33;;
40471;SDS011;26174;42.908;23.800;2022-12-29T10:45:50;44.20;;;21.92;;
40471;SDS011;26174;42.908;23.800;2022-12-29T10:48:28;34.90;;;20.60;;
40471;SDS011;26174;42.908;23.800;2022-12-29T10:50:59;34.40;;;19.75;;
40471;SDS011;26174;42.908;23.800;2022-12-29T10:53:27;38.78;;;19.17;;
40471;SDS011;26174;42.908;23.800;2022-12-29T10:55:58;32.72;;;18.65;;
40471;SDS011;26174;42.908;23.800;2022-12-29T10:58:25;33.35;;;18.25;;
40471;SDS011;26174;42.908;23.800;2022-12-29T11:00:52;20.65;;;12.82;;
40471;SDS011;26174;42.908;23.800;2022-12-29T11:08:49;29.05;;;16.48;;
40471;SDS011;26174;42.908;23.800;2022-12-29T11:11:23;26.42;;;16.60;;
40471;SDS011;26174;42.908;23.800;2022-12-29T11:13:59;30.48;;;15.65;;
40471;SDS011;26174;42.908;23.800;2022-12-29T11:16:33;39.80;;;17.37;;
40471;SDS011;26174;42.908;23.800;2022-12-29T11:19:00;24.35;;;13.30;;
40471;SDS011;26174;42.908;23.800;2022-12-29T11:24:23;34.45;;;19.15;;
40471;SDS011;26174;42.908;23.800;2022-12-29T11:26:51;32.17;;;19.15;;
40471;SDS011;26174;42.908;23.800;2022-12-29T11:31:55;46.65;;;24.92;;
40471;SDS011;26174;42.908;23.800;2022-12-29T11:36:53;45.97;;;24.02;;
40471;SDS011;26174;42.908;23.800;2022-12-29T11:39:24;31.20;;;17.50;;
40471;SDS011;26174;42.908;23.800;2022-12-29T11:41:53;92.22;;;45.63;;
40471;SDS011;26174;42.908;23.800;2022-12-29T11:44:19;65.25;;;33.80;;
40471;SDS011;26174;42.908;23.800;2022-12-29T11:46:46;34.15;;;15.80;;
40471;SDS011;26174;42.908;23.800;2022-12-29T11:49:13;39.67;;;18.48;;
40471;SDS011;26174;42.908;23.800;2022-12-29T11:51:45;46.30;;;18.00;;
40471;SDS011;26174;42.908;23.800;2022-12-29T11:54:20;30.92;;;14.27;;
40471;SDS011;26174;42.908;23.800;2022-12-29T11:56:48;26.98;;;12.35;;
40471;SDS011;26174;42.908;23.800;2022-12-29T12:04:36;31.10;;;14.05;;
40471;SDS011;26174;42.908;23.800;2022-12-29T12:12:21;29.00;;;15.50;;
40471;SDS011;26174;42.908;23.800;2022-12-29T12:14:56;38.55;;;15.30;;
40471;SDS011;26174;42.908;23.800;2022-12-29T12:17:30;24.42;;;13.20;;
40471;SDS011;26174;42.908;23.800;2022-12-29T12:23:06;34.03;;;14.25;;
40471;SDS011;26174;42.908;23.800;2022-12-29T12:25:39;39.73;;;17.60;;
40471;SDS011;26174;42.908;23.800;2022-12-29T12:30:45;21.88;;;12.43;;
40471;SDS011;26174;42.908;23.800;2022-12-29T12:44:18;18.48;;;9.18;;
40471;SDS011;26174;42.908;23.800;2022-12-29T13:00:11;9.10;;;5.80;;
40471;SDS011;26174;42.908;23.800;2022-12-29T13:08:04;9.90;;;6.30;;
40471;SDS011;26174;42.908;23.800;2022-12-29T13:19:03;13.23;;;5.45;;
40471;SDS011;26174;42.908;23.800;2022-12-29T13:27:16;13.73;;;7.68;;
40471;SDS011;26174;42.908;23.800;2022-12-29T13:38:21;12.35;;;7.63;;
40471;SDS011;26174;42.908;23.800;2022-12-29T13:41:03;13.48;;;7.22;;
40471;SDS011;26174;42.908;23.800;2022-12-29T13:43:32;11.23;;;7.00;;
40471;SDS011;26174;42.908;23.800;2022-12-29T13:46:02;13.40;;;7.25;;
40471;SDS011;26174;42.908;23.800;2022-12-29T13:49:17;18.90;;;8.57;;
40471;SDS011;26174;42.908;23.800;2022-12-29T13:51:25;15.32;;;9.93;;
40471;SDS011;26174;42.908;23.800;2022-12-29T13:56:31;14.35;;;9.43;;
40471;SDS011;26174;42.908;23.800;2022-12-29T14:02:09;18.50;;;11.15;;
40471;SDS011;26174;42.908;23.800;2022-12-29T14:04:58;27.48;;;13.60;;
40471;SDS011;26174;42.908;23.800;2022-12-29T14:07:25;23.40;;;12.30;;
40471;SDS011;26174;42.908;23.800;2022-12-29T14:09:52;18.92;;;9.93;;
40471;SDS011;26174;42.908;23.800;2022-12-29T14:14:45;31.10;;;14.80;;
40471;SDS011;26174;42.908;23.800;2022-12-29T14:17:17;38.53;;;21.42;;
40471;SDS011;26174;42.908;23.800;2022-12-29T14:20:25;50.67;;;22.08;;
40471;SDS011;26174;42.908;23.800;2022-12-29T14:28:30;104.03;;;49.33;;
40471;SDS011;26174;42.908;23.800;2022-12-29T14:31:41;92.97;;;46.60;;
40471;SDS011;26174;42.908;23.800;2022-12-29T14:42:04;61.03;;;29.23;;
40471;SDS011;26174;42.908;23.800;2022-12-29T14:44:31;60.92;;;27.23;;
40471;SDS011;26174;42.908;23.800;2022-12-29T14:46:59;57.40;;;25.75;;
40471;SDS011;26174;42.908;23.800;2022-12-29T14:57:40;63.20;;;29.50;;
40471;SDS011;26174;42.908;23.800;2022-12-29T15:00:40;64.13;;;31.25;;
40471;SDS011;26174;42.908;23.800;2022-12-29T15:03:02;77.45;;;36.72;;
40471;SDS011;26174;42.908;23.800;2022-12-29T15:08:00;78.53;;;36.30;;
40471;SDS011;26174;42.908;23.800;2022-12-29T15:10:31;63.70;;;29.50;;
40471;SDS011;26174;42.908;23.800;2022-12-29T15:16:34;104.40;;;46.45;;
40471;SDS011;26174;42.908;23.800;2022-12-29T15:19:01;107.38;;;45.78;;
40471;SDS011;26174;42.908;23.800;2022-12-29T15:21:32;291.13;;;128.73;;
40471;SDS011;26174;42.908;23.800;2022-12-29T15:23:59;141.13;;;63.57;;
40471;SDS011;26174;42.908;23.800;2022-12-29T15:26:41;173.05;;;79.03;;
40471;SDS011;26174;42.908;23.800;2022-12-29T15:34:43;165.48;;;73.22;;
40471;SDS011;26174;42.908;23.800;2022-12-29T15:37:09;183.82;;;77.38;;
40471;SDS011;26174;42.908;23.800;2022-12-29T15:39:40;191.50;;;88.57;;
40471;SDS011;26174;42.908;23.800;2022-12-29T15:42:09;182.98;;;84.93;;
40471;SDS011;26174;42.908;23.800;2022-12-29T15:44:40;175.23;;;77.10;;
40471;SDS011;26174;42.908;23.800;2022-12-29T15:47:11;97.40;;;40.50;;
40471;SDS011;26174;42.908;23.800;2022-12-29T15:49:47;95.18;;;40.45;;
40471;SDS011;26174;42.908;23.800;2022-12-29T15:52:16;69.32;;;27.40;;
40471;SDS011;26174;42.908;23.800;2022-12-29T15:54:43;59.53;;;26.52;;
40471;SDS011;26174;42.908;23.800;2022-12-29T15:57:28;64.80;;;26.45;;
40471;SDS011;26174;42.908;23.800;2022-12-29T15:59:57;49.17;;;23.90;;
40471;SDS011;26174;42.908;23.800;2022-12-29T16:02:24;61.70;;;28.30;;
40471;SDS011;26174;42.908;23.800;2022-12-29T16:04:50;51.15;;;22.00;;
40471;SDS011;26174;42.908;23.800;2022-12-29T16:07:31;62.92;;;25.52;;
40471;SDS011;26174;42.908;23.800;2022-12-29T16:12:35;45.65;;;20.77;;
40471;SDS011;26174;42.908;23.800;2022-12-29T16:15:10;55.13;;;22.27;;
40471;SDS011;26174;42.908;23.800;2022-12-29T16:17:45;47.05;;;22.25;;
40471;SDS011;26174;42.908;23.800;2022-12-29T16:22:48;61.05;;;28.05;;
40471;SDS011;26174;42.908;23.800;2022-12-29T16:27:49;65.18;;;29.55;;
40471;SDS011;26174;42.908;23.800;2022-12-29T16:30:20;48.00;;;21.48;;
40471;SDS011;26174;42.908;23.800;2022-12-29T16:32:51;43.13;;;21.35;;
40471;SDS011;26174;42.908;23.800;2022-12-29T16:35:19;52.05;;;26.85;;
40471;SDS011;26174;42.908;23.800;2022-12-29T16:37:47;55.95;;;27.17;;
40471;SDS011;26174;42.908;23.800;2022-12-29T16:42:54;134.35;;;46.13;;
40471;SDS011;26174;42.908;23.800;2022-12-29T16:50:39;71.40;;;29.83;;
40471;SDS011;26174;42.908;23.800;2022-12-29T16:53:29;108.60;;;39.67;;
40471;SDS011;26174;42.908;23.800;2022-12-29T16:56:08;50.53;;;25.02;;
40471;SDS011;26174;42.908;23.800;2022-12-29T16:58:40;52.10;;;23.83;;
40471;SDS011;26174;42.908;23.800;2022-12-29T17:01:06;51.28;;;25.35;;
40471;SDS011;26174;42.908;23.800;2022-12-29T17:03:40;51.97;;;25.27;;
40471;SDS011;26174;42.908;23.800;2022-12-29T17:06:13;57.75;;;25.15;;
40471;SDS011;26174;42.908;23.800;2022-12-29T17:08:43;32.00;;;14.55;;
40471;SDS011;26174;42.908;23.800;2022-12-29T17:11:21;44.08;;;20.15;;
40471;SDS011;26174;42.908;23.800;2022-12-29T17:14:09;42.83;;;22.83;;
40471;SDS011;26174;42.908;23.800;2022-12-29T17:16:44;48.97;;;22.60;;
40471;SDS011;26174;42.908;23.800;2022-12-29T17:19:11;43.70;;;21.10;;
40471;SDS011;26174;42.908;23.800;2022-12-29T17:24:11;49.55;;;16.85;;
40471;SDS011;26174;42.908;23.800;2022-12-29T17:26:41;33.03;;;15.80;;
40471;SDS011;26174;42.908;23.800;2022-12-29T17:29:09;39.97;;;17.30;;
40471;SDS011;26174;42.908;23.800;2022-12-29T17:31:45;37.78;;;16.88;;
40471;SDS011;26174;42.908;23.800;2022-12-29T17:34:11;42.65;;;19.10;;
40471;SDS011;26174;42.908;23.800;2022-12-29T17:36:37;34.55;;;13.38;;
40471;SDS011;26174;42.908;23.800;2022-12-29T17:39:04;27.75;;;11.85;;
40471;SDS011;26174;42.908;23.800;2022-12-29T17:41:30;29.83;;;10.57;;
40471;SDS011;26174;42.908;23.800;2022-12-29T17:43:57;29.13;;;10.95;;
40471;SDS011;26174;42.908;23.800;2022-12-29T17:46:23;35.30;;;10.88;;
40471;SDS011;26174;42.908;23.800;2022-12-29T17:48:49;34.75;;;10.88;;
40471;SDS011;26174;42.908;23.800;2022-12-29T17:51:14;28.83;;;12.43;;
40471;SDS011;26174;42.908;23.800;2022-12-29T17:53:43;31.80;;;12.77;;
40471;SDS011;26174;42.908;23.800;2022-12-29T17:56:15;27.25;;;10.65;;
40471;SDS011;26174;42.908;23.800;2022-12-29T17:58:41;29.77;;;14.55;;